Latest Weather Observations for Little Bay

IDN60801

Issued at 2:35 am EDT Monday 24 November 2014 (issued every 30 minutes, with the page automatically refreshed every 10 minutes)

About weather observations | Map of weather stations | Latest weather observations for NSW | Other Formats
Station Details ID: 066051 Name: LITTLE BAY (THE COAST GOLF CLUB) Lat: -33.98 Lon: 151.25 Height: 22.0 m
Data from the previous 72 hours. | See also: Recent months for locations in New South Wales
Date/Time
EDT
Temp
°C
App
Temp
°C
Dew
Point
Rel
Hum
%
Delta-T
°C
Wind Press
QNH
hPa
Press
MSL
hPa
Rain
since 9 am
mm
Dir
 
Spd
km/h
Gust
km/h
Spd
kts
Gust
kts
24/02:30am - - - - - S 9 13 5 7 - - -
24/02:00am - - - - - SSW 17 26 9 14 - - -
24/01:30am - - - - - SSW 17 26 9 14 - - -
24/01:00am - - - - - SW 13 20 7 11 - - -
24/12:30am - - - - - SSW 13 20 7 11 - - -
24/12:00am - - - - - SSE 4 7 2 4 - - -
 
Date/Time
EDT
Temp
°C
App
Temp
°C
Dew
Point
Rel
Hum
%
Delta-T
°C
Wind Press
QNH
hPa
Press
MSL
hPa
Rain
since 9 am
mm
Dir
 
Spd
km/h
Gust
km/h
Spd
kts
Gust
kts
23/11:30pm - - - - - SW 13 19 7 10 - - -
23/11:00pm - - - - - SSW 6 9 3 5 - - -
23/10:30pm - - - - - SSW 9 20 5 11 - - -
23/10:00pm - - - - - S 15 26 8 14 - - -
23/09:30pm - - - - - S 24 30 13 16 - - -
23/09:00pm - - - - - SSE 22 26 12 14 - - -
23/08:30pm - - - - - S 30 43 16 23 - - -
23/08:00pm - - - - - S 28 39 15 21 - - -
23/07:30pm - - - - - S 28 41 15 22 - - -
23/07:00pm - - - - - S 30 41 16 22 - - -
23/06:30pm - - - - - S 32 43 17 23 - - -
23/06:26pm - - - - - S 28 43 15 23 - - -
23/06:00pm - - - - - SSE 17 22 9 12 - - -
23/05:30pm - - - - - ESE 19 24 10 13 - - -
23/05:00pm - - - - - SE 15 22 8 12 - - -
23/04:30pm - - - - - ENE 19 24 10 13 - - -
23/04:00pm - - - - - SSE 20 24 11 13 - - -
23/03:30pm - - - - - SSE 20 22 11 12 - - -
23/03:00pm - - - - - NNE 24 32 13 17 - - -
23/02:30pm - - - - - NNE 26 33 14 18 - - -
23/02:00pm - - - - - NE 24 32 13 17 - - -
23/01:30pm - - - - - NNE 24 32 13 17 - - -
23/01:00pm - - - - - NE 17 20 9 11 - - -
23/12:30pm - - - - - NE 15 22 8 12 - - -
23/12:00pm - - - - - NNE 19 22 10 12 - - -
23/11:30am - - - - - NE 17 19 9 10 - - -
23/11:00am - - - - - NE 15 20 8 11 - - -
23/10:30am - - - - - ENE 11 17 6 9 - - -
23/10:00am - - - - - NE 13 17 7 9 - - -
23/09:30am - - - - - NE 11 15 6 8 - - -
23/09:00am - - - - - NE 9 13 5 7 - - -
23/08:30am - - - - - NE 7 9 4 5 - - -
23/08:00am - - - - - NNW 7 11 4 6 - - -
23/07:30am - - - - - N 6 9 3 5 - - -
23/07:00am - - - - - N 6 9 3 5 - - -
23/06:30am - - - - - N 4 6 2 3 - - -
23/06:00am - - - - - N 4 6 2 3 - - -
23/05:30am - - - - - N 6 9 3 5 - - -
23/05:00am - - - - - N 7 13 4 7 - - -
23/04:30am - - - - - N 6 9 3 5 - - -
23/04:00am - - - - - N 6 7 3 4 - - -
23/03:30am - - - - - N 4 6 2 3 - - -
23/03:00am - - - - - N 4 6 2 3 - - -
23/02:30am - - - - - N 4 4 2 2 - - -
23/02:00am - - - - - CALM 0 4 0 2 - - -
23/01:30am - - - - - N 2 6 1 3 - - -
23/01:00am - - - - - N 4 7 2 4 - - -
23/12:30am - - - - - N 7 13 4 7 - - -
23/12:00am - - - - - NNW 4 7 2 4 - - -
 
Date/Time
EDT
Temp
°C
App
Temp
°C
Dew
Point
Rel
Hum
%
Delta-T
°C
Wind Press
QNH
hPa
Press
MSL
hPa
Rain
since 9 am
mm
Dir
 
Spd
km/h
Gust
km/h
Spd
kts
Gust
kts
22/11:30pm - - - - - NNE 13 17 7 9 - - -
22/11:00pm - - - - - N 11 17 6 9 - - -
22/10:30pm - - - - - NNE 11 17 6 9 - - -
22/10:00pm - - - - - N 13 20 7 11 - - -
22/09:30pm - - - - - N 11 17 6 9 - - -
22/09:00pm - - - - - N 15 19 8 10 - - -
22/08:30pm - - - - - NNE 13 19 7 10 - - -
22/08:00pm - - - - - NNE 17 20 9 11 - - -
22/07:30pm - - - - - NNE 17 20 9 11 - - -
22/07:00pm - - - - - NE 20 26 11 14 - - -
22/06:30pm - - - - - NE 15 20 8 11 - - -
22/06:00pm - - - - - ENE 17 24 9 13 - - -
22/05:30pm - - - - - ENE 15 20 8 11 - - -
22/05:00pm - - - - - ENE 19 22 10 12 - - -
22/04:30pm - - - - - E 19 22 10 12 - - -
22/04:00pm - - - - - ENE 20 24 11 13 - - -
22/03:30pm - - - - - E 19 24 10 13 - - -
22/03:00pm - - - - - E 15 20 8 11 - - -
22/02:30pm - - - - - E 17 22 9 12 - - -
22/02:00pm - - - - - E 15 19 8 10 - - -
22/01:30pm - - - - - E 15 19 8 10 - - -
22/01:00pm - - - - - E 13 17 7 9 - - -
22/12:30pm - - - - - E 13 17 7 9 - - -
22/12:00pm - - - - - E 11 15 6 8 - - -
22/11:30am - - - - - ESE 9 11 5 6 - - -
22/11:00am - - - - - ENE 7 11 4 6 - - -
22/10:30am - - - - - ESE 7 11 4 6 - - -
22/10:00am - - - - - S 11 17 6 9 - - -
22/09:30am - - - - - S 9 19 5 10 - - -
22/09:00am - - - - - SE 9 15 5 8 - - -
22/08:30am - - - - - SSE 13 17 7 9 - - -
22/08:00am - - - - - SSE 11 17 6 9 - - -
22/07:30am - - - - - SSE 15 19 8 10 - - -
22/07:00am - - - - - S 15 19 8 10 - - -
22/06:30am - - - - - S 13 19 7 10 - - -
22/06:00am - - - - - S 15 22 8 12 - - -
22/05:30am - - - - - S 17 24 9 13 - - -
22/05:00am - - - - - S 17 20 9 11 - - -
22/04:30am - - - - - S 17 22 9 12 - - -
22/04:00am - - - - - S 17 24 9 13 - - -
22/03:30am - - - - - S 17 20 9 11 - - -
22/03:00am - - - - - S 19 26 10 14 - - -
22/02:30am - - - - - S 20 26 11 14 - - -
22/02:00am - - - - - S 20 32 11 17 - - -
22/01:30am - - - - - S 24 32 13 17 - - -
22/01:00am - - - - - S 26 35 14 19 - - -
22/12:30am - - - - - S 28 39 15 21 - - -
22/12:00am - - - - - S 30 41 16 22 - - -
 
Date/Time
EDT
Temp
°C
App
Temp
°C
Dew
Point
Rel
Hum
%
Delta-T
°C
Wind Press
QNH
hPa
Press
MSL
hPa
Rain
since 9 am
mm
Dir
 
Spd
km/h
Gust
km/h
Spd
kts
Gust
kts
21/11:30pm - - - - - S 30 43 16 23 - - -
21/11:00pm - - - - - S 33 46 18 25 - - -
21/10:30pm - - - - - S 33 46 18 25 - - -
21/10:00pm - - - - - S 32 46 17 25 - - -
21/09:30pm - - - - - S 37 54 20 29 - - -
21/09:00pm - - - - - S 37 50 20 27 - - -
21/08:30pm - - - - - S 37 50 20 27 - - -
21/08:00pm - - - - - S 35 48 19 26 - - -
21/07:30pm - - - - - S 33 50 18 27 - - -
21/07:00pm - - - - - S 32 43 17 23 - - -
21/06:30pm - - - - - S 30 41 16 22 - - -
21/06:00pm - - - - - S 30 39 16 21 - - -
21/05:40pm - - - - - S 33 41 18 22 - - -
21/05:30pm - - - - - SSE 11 13 6 7 - - -
21/05:00pm - - - - - SE 9 11 5 6 - - -
21/04:30pm - - - - - ESE 9 13 5 7 - - -
21/04:00pm - - - - - ESE 7 13 4 7 - - -
21/03:30pm - - - - - SE 15 19 8 10 - - -
21/03:00pm - - - - - SSE 19 24 10 13 - - -
21/02:30pm - - - - - SSE 19 24 10 13 - - -
21/02:00pm - - - - - SE 11 15 6 8 - - -
21/01:30pm - - - - - NE 11 19 6 10 - - -
21/01:00pm - - - - - NNE 7 11 4 6 - - -
21/12:30pm - - - - - ENE 7 13 4 7 - - -
21/12:00pm - - - - - E 7 9 4 5 - - -
21/11:30am - - - - - E 7 9 4 5 - - -
21/11:00am - - - - - SE 7 9 4 5 - - -
21/10:30am - - - - - SSE 13 17 7 9 - - -
21/10:00am - - - - - SSE 11 15 6 8 - - -
21/09:30am - - - - - SSE 13 17 7 9 - - -
21/09:00am - - - - - SSE 17 20 9 11 - - -
21/08:30am - - - - - SE 6 11 3 6 - - -
21/08:00am - - - - - NW 7 11 4 6 - - -
21/07:30am - - - - - WNW 9 11 5 6 - - -
21/07:00am - - - - - WNW 6 7 3 4 - - -
21/06:30am - - - - - NW 7 13 4 7 - - -
21/06:00am - - - - - W 15 22 8 12 - - -
21/05:30am - - - - - NW 13 24 7 13 - - -
21/05:00am - - - - - W 9 19 5 10 - - -
21/04:30am - - - - - NNW 4 7 2 4 - - -
21/04:00am - - - - - E 4 6 2 3 - - -
21/03:30am - - - - - W 13 17 7 9 - - -
21/03:00am - - - - - WNW 9 13 5 7 - - -

Other Formats:

Comma delimited format used in spreadsheet applications
http://www.bom.gov.au/fwo/IDN60801/IDN60801.94780.axf

JavaScript Object Notation format (JSON) in row-major order
http://www.bom.gov.au/fwo/IDN60801/IDN60801.94780.json